Time;durP1;ratioP1;P1;durP2;ratioP2;P2;SDS_P1;SDS_P2;PMS_P1;PMS_P2;Temp;Humidity;BMP_temperature;BMP_pressure;BME280_temperature;BME280_humidity;BME280_pressure;Samples;Min_cycle;Max_cycle;Signal;HPM_P1;HPM_P2
2022/06/19 00:02:18;;;;;;;;;;;;;;;16.70;76.58;101188.34;4997347;28;19972;-81
2022/06/19 00:04:43;;;;;;;;;;;;;;;16.73;76.32;101190.69;5007411;28;19909;-81
2022/06/19 00:07:09;;;;;;;;;;;;;;;16.68;76.54;101185.81;4996198;28;19967;-81
2022/06/19 00:09:34;;;;;;;;;;;;;;;16.61;76.78;101190.31;4989753;28;19914;-81
2022/06/19 00:12:00;;;;;;;;;;;;;;;16.66;76.63;101187.88;5008716;28;19905;-81
2022/06/19 00:14:25;;;;;;;;;;;;;;;16.70;76.71;101189.19;4993646;28;19929;-81
2022/06/19 00:16:56;;;;;;;;;;;;;;;16.66;76.46;101188.72;4990095;28;19922;-80
2022/06/19 00:19:23;;;;;;;;;;;;;;;16.60;76.91;101186.78;5002441;28;19956;-81
2022/06/19 00:21:50;;;;;;;;;;;;;;;16.50;77.34;101194.31;5014547;28;19921;-81
2022/06/19 00:24:16;;;;;;;;;;;;;;;16.58;77.06;101191.53;5016331;28;19909;-81
2022/06/19 00:26:43;;;;;;;;;;;;;;;16.59;77.02;101181.50;5016894;28;19913;-81
2022/06/19 00:29:08;;;;;;;;;;;;;;;16.45;77.57;101177.78;5008635;28;19913;-80
2022/06/19 00:31:33;;;;;;;;;;;;;;;16.52;77.38;101181.41;4959879;28;19922;-79
2022/06/19 00:33:59;;;;;;;;;;;;;;;16.47;77.34;101183.84;4967271;28;19914;-81
2022/06/19 00:36:26;;;;;;;;;;;;;;;16.59;76.93;101186.94;4993432;28;19932;-81
2022/06/19 00:38:53;;;;;;;;;;;;;;;16.50;77.09;101182.63;4970664;28;19910;-80
2022/06/19 00:41:19;;;;;;;;;;;;;;;16.44;77.53;101184.25;4974090;28;20317;-81
2022/06/19 00:44:00;;;;;;;;;;;;;;;16.53;76.92;101187.69;4972868;28;19913;-81
2022/06/19 00:46:41;;;;;;;;;;;;;;;16.56;76.79;101187.34;4974905;28;19913;-81
2022/06/19 00:49:08;;;;;;;;;;;;;;;16.58;77.25;101180.69;4992478;28;20008;-81
2022/06/19 00:51:34;;;;;;;;;;;;;;;16.54;77.41;101184.78;4959152;28;19973;-81
2022/06/19 00:54:02;;;;;;;;;;;;;;;16.53;77.63;101177.69;4966025;28;19910;-81
2022/06/19 00:56:30;;;;;;;;;;;;;;;16.55;77.42;101180.19;4992163;28;20374;-81
2022/06/19 00:58:56;;;;;;;;;;;;;;;16.49;77.72;101189.94;4983917;28;19960;-80
2022/06/19 01:01:21;;;;;;;;;;;;;;;16.54;77.79;101190.22;4962057;28;19925;-80
2022/06/19 01:03:54;;;;;;;;;;;;;;;16.44;78.18;101181.53;4970923;28;19944;-80
2022/06/19 01:06:20;;;;;;;;;;;;;;;16.37;78.23;101183.31;4977253;28;19918;-81
2022/06/19 01:08:47;;;;;;;;;;;;;;;16.40;77.87;101182.94;4966770;28;19976;-81
2022/06/19 01:11:13;;;;;;;;;;;;;;;16.47;77.66;101175.72;4989355;28;19952;-81
2022/06/19 01:13:41;;;;;;;;;;;;;;;16.45;77.43;101169.63;4977944;28;19949;-80
2022/06/19 01:16:06;;;;;;;;;;;;;;;16.41;77.62;101168.31;4987706;28;19920;-81
2022/06/19 01:18:33;;;;;;;;;;;;;;;16.34;77.69;101172.81;4978002;28;19926;-81
2022/06/19 01:21:01;;;;;;;;;;;;;;;16.43;77.03;101166.25;4992735;28;19960;-82
2022/06/19 01:23:34;;;;;;;;;;;;;;;16.35;77.15;101169.91;4978719;28;19913;-81
2022/06/19 01:26:01;;;;;;;;;;;;;;;16.42;77.09;101172.72;4992816;28;19909;-79
2022/06/19 01:31:12;;;;;;;;;;;;;;;16.32;77.55;101174.84;4978276;28;19975;-82
2022/06/19 01:33:43;;;;;;;;;;;;;;;16.34;77.42;101175.50;4991423;28;19914;-80
2022/06/19 01:36:10;;;;;;;;;;;;;;;16.31;77.31;101175.91;4976713;28;19910;-81
2022/06/19 01:38:37;;;;;;;;;;;;;;;16.41;77.38;101176.44;4977088;28;19914;-81
2022/06/19 01:41:06;;;;;;;;;;;;;;;16.33;77.50;101171.13;4979545;28;19929;-81
2022/06/19 01:43:31;;;;;;;;;;;;;;;16.30;77.68;101176.94;4975671;28;20032;-80
2022/06/19 01:45:57;;;;;;;;;;;;;;;16.34;77.79;101183.66;4976214;28;20056;-81
2022/06/19 01:48:29;;;;;;;;;;;;;;;16.30;77.72;101180.50;4977499;28;19925;-80
2022/06/19 01:50:56;;;;;;;;;;;;;;;16.22;78.41;101181.44;4991632;28;20286;-81
2022/06/19 01:53:25;;;;;;;;;;;;;;;16.35;77.67;101182.66;4992528;28;19914;-81
2022/06/19 01:55:51;;;;;;;;;;;;;;;16.28;78.06;101184.41;4993455;28;19972;-80
2022/06/19 01:58:17;;;;;;;;;;;;;;;16.28;78.27;101179.00;4970174;28;19921;-80
2022/06/19 02:00:47;;;;;;;;;;;;;;;16.36;77.52;101185.16;4967012;28;19922;-80
2022/06/19 02:03:50;;;;;;;;;;;;;;;16.40;77.40;101180.22;4978337;28;19921;-81
2022/06/19 02:06:19;;;;;;;;;;;;;;;16.30;77.97;101182.38;4908890;29;19914;-82
2022/06/19 02:08:47;;;;;;;;;;;;;;;16.25;77.76;101183.75;4922459;29;19910;-82
2022/06/19 02:11:13;;;;;;;;;;;;;;;16.32;77.88;101183.88;4920204;29;20009;-83
2022/06/19 02:13:39;;;;;;;;;;;;;;;16.29;78.07;101188.81;4902925;29;20328;-81
2022/06/19 02:16:07;;;;;;;;;;;;;;;16.19;78.16;101186.38;4904977;29;19911;-80
2022/06/19 02:18:36;;;;;;;;;;;;;;;16.15;78.36;101199.44;4908800;29;19931;-81
2022/06/19 02:21:02;;;;;;;;;;;;;;;16.12;78.54;101197.09;4903840;29;20384;-81
2022/06/19 02:23:31;;;;;;;;;;;;;;;16.15;78.45;101196.72;4914180;29;19914;-81
2022/06/19 02:25:57;;;;;;;;;;;;;;;16.19;78.52;101198.06;4927368;29;20399;-80
2022/06/19 02:28:22;;;;;;;;;;;;;;;16.18;78.49;101198.25;4903060;29;19977;-80
2022/06/19 02:30:48;;;;;;;;;;;;;;;16.24;78.26;101205.63;4931362;29;19950;-82
2022/06/19 02:33:15;;;;;;;;;;;;;;;16.16;78.59;101201.16;4923237;29;20325;-80
2022/06/19 02:35:40;;;;;;;;;;;;;;;16.30;78.07;101199.47;4912798;29;19923;-80
2022/06/19 02:38:06;;;;;;;;;;;;;;;16.33;78.10;101209.13;4928594;29;19914;-81
2022/06/19 02:40:39;;;;;;;;;;;;;;;16.23;78.49;101204.81;4964526;28;20350;-80
2022/06/19 02:43:14;;;;;;;;;;;;;;;16.29;77.66;101203.19;4988744;28;19972;-80
2022/06/19 02:45:40;;;;;;;;;;;;;;;16.28;77.66;101195.28;4999575;28;20373;-79
2022/06/19 02:48:08;;;;;;;;;;;;;;;16.32;77.39;101207.41;5009811;28;19975;-81
2022/06/19 02:50:34;;;;;;;;;;;;;;;16.40;76.51;101208.19;5014583;28;19917;-80
2022/06/19 02:52:59;;;;;;;;;;;;;;;16.40;76.63;101210.06;4993115;28;19913;-81
2022/06/19 02:55:26;;;;;;;;;;;;;;;16.39;76.49;101202.97;5001845;28;20008;-81
2022/06/19 02:57:52;;;;;;;;;;;;;;;16.43;76.08;101201.53;4996863;28;20373;-81
2022/06/19 03:00:21;;;;;;;;;;;;;;;16.48;75.53;101207.25;4992610;28;20007;-81
2022/06/19 03:02:50;;;;;;;;;;;;;;;16.48;75.06;101199.09;5002006;28;19924;-80
2022/06/19 03:05:20;;;;;;;;;;;;;;;16.41;75.26;101206.31;4992226;28;19959;-79
2022/06/19 03:07:50;;;;;;;;;;;;;;;16.42;74.53;101208.84;5022168;28;19913;-81
2022/06/19 03:10:16;;;;;;;;;;;;;;;16.51;73.85;101212.31;5014783;28;20020;-82
2022/06/19 03:12:41;;;;;;;;;;;;;;;16.61;73.03;101212.88;5015403;28;19975;-81
2022/06/19 03:15:07;;;;;;;;;;;;;;;16.69;72.74;101214.63;5003083;28;19913;-81
2022/06/19 03:17:33;;;;;;;;;;;;;;;16.71;72.56;101212.59;5010312;28;20000;-78
2022/06/19 03:19:59;;;;;;;;;;;;;;;16.76;72.47;101218.28;5016669;28;20325;-80
2022/06/19 03:22:25;;;;;;;;;;;;;;;16.68;72.73;101213.81;4998885;28;19971;-80
2022/06/19 03:24:50;;;;;;;;;;;;;;;16.81;72.35;101207.75;5013291;28;20313;-81
2022/06/19 03:27:15;;;;;;;;;;;;;;;16.75;72.14;101210.34;5013406;28;20000;-81
2022/06/19 03:29:41;;;;;;;;;;;;;;;16.86;71.62;101209.91;4981188;28;20016;-81
2022/06/19 03:32:08;;;;;;;;;;;;;;;16.91;71.45;101204.75;4993928;28;20362;-81
2022/06/19 03:34:34;;;;;;;;;;;;;;;17.01;70.13;101218.84;4995563;28;20016;-81
2022/06/19 03:36:59;;;;;;;;;;;;;;;17.01;69.08;101213.44;5010963;28;20346;-81
2022/06/19 03:39:24;;;;;;;;;;;;;;;17.12;69.97;101220.25;4992558;28;20380;-81
2022/06/19 03:41:51;;;;;;;;;;;;;;;17.12;69.36;101214.00;5017526;28;20370;-81
2022/06/19 03:44:16;;;;;;;;;;;;;;;17.25;69.22;101225.00;5013234;28;19914;-81
2022/06/19 03:46:43;;;;;;;;;;;;;;;17.31;68.98;101224.25;5004582;28;20004;-81
2022/06/19 03:49:08;;;;;;;;;;;;;;;17.29;67.58;101212.72;4993192;28;19921;-81
2022/06/19 03:51:34;;;;;;;;;;;;;;;17.33;67.31;101216.75;4986042;28;20404;-81
2022/06/19 03:53:59;;;;;;;;;;;;;;;17.47;66.99;101213.13;4996909;28;19913;-81
2022/06/19 03:56:25;;;;;;;;;;;;;;;17.57;67.21;101211.97;5011036;28;19910;-81
2022/06/19 03:58:51;;;;;;;;;;;;;;;17.63;66.55;101222.94;4987375;28;19932;-80
2022/06/19 04:01:21;;;;;;;;;;;;;;;17.78;65.78;101213.84;4992163;28;20000;-81
2022/06/19 04:03:47;;;;;;;;;;;;;;;18.28;65.34;101215.53;4986197;28;19976;-81
2022/06/19 04:06:13;;;;;;;;;;;;;;;18.77;63.11;101220.06;5005617;28;19909;-82
2022/06/19 04:08:39;;;;;;;;;;;;;;;19.17;61.52;101212.09;4991493;28;20003;-81
2022/06/19 04:11:05;;;;;;;;;;;;;;;19.42;59.11;101211.53;4999103;28;19980;-81
2022/06/19 04:13:34;;;;;;;;;;;;;;;19.67;58.62;101213.69;4997435;28;20018;-82
2022/06/19 04:16:00;;;;;;;;;;;;;;;19.96;57.84;101207.84;5009847;28;19936;-81
2022/06/19 04:18:26;;;;;;;;;;;;;;;20.23;56.12;101207.84;4996015;28;20012;-84
2022/06/19 04:20:53;;;;;;;;;;;;;;;20.47;55.21;101216.44;5025183;28;20381;-79
2022/06/19 04:23:18;;;;;;;;;;;;;;;20.74;54.38;101207.13;4988383;28;19922;-80
2022/06/19 04:25:44;;;;;;;;;;;;;;;20.95;53.46;101211.47;5010448;28;19921;-82
2022/06/19 04:28:09;;;;;;;;;;;;;;;21.12;52.50;101217.31;5003424;28;19963;-81
2022/06/19 04:30:37;;;;;;;;;;;;;;;21.32;51.93;101219.94;5032564;28;19972;-86
2022/06/19 04:33:04;;;;;;;;;;;;;;;21.41;51.62;101210.44;5001209;28;19969;-82
2022/06/19 04:35:30;;;;;;;;;;;;;;;21.71;51.02;101212.56;4996362;28;20011;-82
2022/06/19 04:37:59;;;;;;;;;;;;;;;22.00;49.99;101213.81;5012093;28;20003;-81
2022/06/19 04:40:28;;;;;;;;;;;;;;;22.24;49.57;101212.19;4976601;28;20040;-82
2022/06/19 04:42:54;;;;;;;;;;;;;;;22.54;49.05;101214.19;4999936;28;19909;-84
2022/06/19 04:45:19;;;;;;;;;;;;;;;22.71;47.63;101220.75;4999755;28;19973;-83
2022/06/19 04:47:44;;;;;;;;;;;;;;;22.84;47.07;101214.28;5017953;28;19913;-81
2022/06/19 04:50:09;;;;;;;;;;;;;;;22.95;46.84;101215.44;5017715;28;19989;-83
2022/06/19 04:52:35;;;;;;;;;;;;;;;23.14;46.31;101227.25;4997572;28;19913;-82
2022/06/19 04:55:00;;;;;;;;;;;;;;;23.31;46.14;101224.69;5019078;28;19975;-83
2022/06/19 04:57:25;;;;;;;;;;;;;;;23.30;45.49;101223.84;4975850;28;19913;-82
2022/06/19 04:59:51;;;;;;;;;;;;;;;23.55;44.79;101223.72;5021359;28;19909;-81
2022/06/19 05:02:16;;;;;;;;;;;;;;;23.58;44.50;101216.94;5012350;28;20320;-83
2022/06/19 05:04:42;;;;;;;;;;;;;;;23.70;44.30;101217.78;5006194;28;19909;-82
2022/06/19 05:07:07;;;;;;;;;;;;;;;23.78;44.19;101214.72;5000278;28;20012;-83
2022/06/19 05:09:32;;;;;;;;;;;;;;;23.91;43.67;101218.34;5021582;28;20280;-84
2022/06/19 05:11:59;;;;;;;;;;;;;;;23.99;43.65;101226.22;4995399;28;20304;-82
2022/06/19 05:14:25;;;;;;;;;;;;;;;24.19;42.95;101224.00;4994817;28;19964;-84
2022/06/19 05:16:50;;;;;;;;;;;;;;;24.26;42.79;101229.38;4991872;28;20336;-82
2022/06/19 05:19:16;;;;;;;;;;;;;;;24.26;43.10;101217.56;5013415;28;20334;-83
2022/06/19 05:21:42;;;;;;;;;;;;;;;24.41;42.80;101217.91;5006619;28;19917;-83
2022/06/19 05:24:09;;;;;;;;;;;;;;;24.61;42.37;101234.06;5006540;28;19913;-83
2022/06/19 05:26:35;;;;;;;;;;;;;;;24.79;41.84;101224.81;4998036;28;20018;-83
2022/06/19 05:29:00;;;;;;;;;;;;;;;24.73;41.66;101221.13;4993851;28;19913;-87
2022/06/19 05:31:27;;;;;;;;;;;;;;;24.89;41.62;101222.31;4983506;28;19990;-84
2022/06/19 05:33:54;;;;;;;;;;;;;;;25.07;41.38;101232.28;4979508;28;20400;-85
2022/06/19 05:36:20;;;;;;;;;;;;;;;25.03;41.16;101226.44;4976880;28;19992;-90
2022/06/19 05:39:04;;;;;;;;;;;;;;;25.20;40.94;101231.22;4979547;28;19992;-90
2022/06/19 05:41:36;;;;;;;;;;;;;;;25.31;40.87;101234.97;4982502;28;19910;-88
2022/06/19 05:44:03;;;;;;;;;;;;;;;25.49;40.58;101245.81;4981627;28;20006;-90
2022/06/19 05:46:31;;;;;;;;;;;;;;;25.69;40.37;101248.09;4976042;28;20465;-91
2022/06/19 05:49:09;;;;;;;;;;;;;;;25.92;40.00;101243.56;4985051;28;19917;-91
2022/06/19 05:51:43;;;;;;;;;;;;;;;26.08;39.45;101243.59;4984126;28;19933;-90
2022/06/19 05:54:10;;;;;;;;;;;;;;;26.26;39.14;101239.72;4972983;28;20330;-92
2022/06/19 05:56:55;;;;;;;;;;;;;;;;;;;;;
2022/06/19 05:59:54;;;;;;;;;;;;;;;;;;;;;
2022/06/19 06:02:23;;;;;;;;;;;;;;;26.76;37.30;101246.28;4982271;28;19969;-89
2022/06/19 06:05:05;;;;;;;;;;;;;;;;;;;;;
2022/06/19 06:07:31;;;;;;;;;;;;;;;27.07;37.63;101242.00;4987028;28;19928;-87
2022/06/19 06:10:23;;;;;;;;;;;;;;;27.36;36.68;101244.56;4982470;28;19941;-89
2022/06/19 06:12:49;;;;;;;;;;;;;;;27.60;36.42;101238.75;5011465;28;19973;-88
2022/06/19 06:15:29;;;;;;;;;;;;;;;27.79;35.73;101245.56;5010777;28;19910;-88
2022/06/19 06:18:06;;;;;;;;;;;;;;;;;;;;;
2022/06/19 06:20:51;;;;;;;;;;;;;;;28.18;34.47;101246.19;5002524;28;19988;-90
2022/06/19 06:23:30;;;;;;;;;;;;;;;;;;;;;
2022/06/19 06:25:59;;;;;;;;;;;;;;;28.34;32.49;101233.31;4993197;28;19916;-90
2022/06/19 06:28:33;;;;;;;;;;;;;;;28.40;33.43;101235.03;4985490;28;19914;-93
2022/06/19 06:31:18;;;;;;;;;;;;;;;28.54;33.10;101240.09;5035808;28;19905;-92
2022/06/19 06:33:46;;;;;;;;;;;;;;;28.60;32.36;101233.53;5024304;28;20385;-92
2022/06/19 06:36:20;;;;;;;;;;;;;;;28.64;33.12;101233.84;5000432;28;20305;-93
2022/06/19 06:39:12;;;;;;;;;;;;;;;28.76;32.39;101226.97;5002200;28;19915;-93
2022/06/19 06:41:48;;;;;;;;;;;;;;;;;;;;;
2022/06/19 06:44:14;;;;;;;;;;;;;;;29.16;31.87;101231.03;5007010;28;19996;-87
2022/06/19 06:47:07;;;;;;;;;;;;;;;;;;;;;
2022/06/19 06:49:50;;;;;;;;;;;;;;;29.70;31.67;101235.34;5017407;28;20011;-91
2022/06/19 06:52:36;;;;;;;;;;;;;;;29.68;29.52;101237.56;5016487;28;19913;-87
2022/06/19 06:58:40;;;;;;;;;;;;;;;30.02;29.64;101239.81;5001285;28;19909;-88
2022/06/19 07:01:14;;;;;;;;;;;;;;;30.05;28.87;101236.47;4992916;28;19913;-88
2022/06/19 07:03:41;;;;;;;;;;;;;;;30.06;29.05;101232.56;4998916;28;19956;-87
2022/06/19 07:06:16;;;;;;;;;;;;;;;30.19;29.27;101233.97;4983089;28;20573;-87
2022/06/19 07:08:43;;;;;;;;;;;;;;;30.08;29.23;101241.44;4999376;28;20313;-86
2022/06/19 07:11:13;;;;;;;;;;;;;;;29.80;28.90;101237.28;4989797;28;19964;-85
2022/06/19 07:13:43;;;;;;;;;;;;;;;29.58;28.96;101232.81;5000037;28;20258;-87
2022/06/19 07:16:09;;;;;;;;;;;;;;;29.36;29.34;101227.50;4981221;28;19917;-85
2022/06/19 07:18:38;;;;;;;;;;;;;;;29.10;30.03;101231.28;5017287;28;19917;-84
2022/06/19 07:21:05;;;;;;;;;;;;;;;29.20;29.56;101226.63;5011282;28;19909;-84
2022/06/19 07:23:32;;;;;;;;;;;;;;;29.13;29.29;101228.81;4991517;28;19910;-85
2022/06/19 07:25:59;;;;;;;;;;;;;;;29.21;29.51;101231.03;4985111;28;20356;-86
2022/06/19 07:28:27;;;;;;;;;;;;;;;29.58;29.47;101234.75;4983754;28;19905;-85
2022/06/19 07:30:53;;;;;;;;;;;;;;;29.65;29.08;101230.59;4994666;28;19913;-86
2022/06/19 07:33:18;;;;;;;;;;;;;;;29.66;28.51;101232.28;5018230;28;19921;-87
2022/06/19 07:35:56;;;;;;;;;;;;;;;29.76;28.40;101220.41;4986205;28;19913;-89
2022/06/19 07:38:28;;;;;;;;;;;;;;;30.12;28.29;101230.66;5005933;28;19913;-87
2022/06/19 07:41:03;;;;;;;;;;;;;;;30.45;27.25;101224.50;5006494;28;19935;-87
2022/06/19 07:43:50;;;;;;;;;;;;;;;;;;;;;
2022/06/19 07:46:30;;;;;;;;;;;;;;;31.07;26.66;101235.44;4985970;28;19921;-86
2022/06/19 07:54:51;;;;;;;;;;;;;;;30.68;27.45;101227.81;4993006;28;20354;-88
2022/06/19 07:57:28;;;;;;;;;;;;;;;30.55;28.11;101226.44;4972260;28;19916;-89
2022/06/19 08:00:05;;;;;;;;;;;;;;;;;;;;;
2022/06/19 08:02:32;;;;;;;;;;;;;;;31.17;27.44;101240.13;5011265;28;20342;-87
2022/06/19 08:05:11;;;;;;;;;;;;;;;31.24;27.12;101233.13;5012374;28;19913;-90
2022/06/19 08:07:53;;;;;;;;;;;;;;;31.37;26.28;101231.66;5013701;28;19948;-88
2022/06/19 08:10:57;;;;;;;;;;;;;;;;;;;;;
2022/06/19 08:13:45;;;;;;;;;;;;;;;;;;;;;
2022/06/19 08:16:34;;;;;;;;;;;;;;;32.01;25.38;101234.59;4981076;28;19917;-89
2022/06/19 08:19:13;;;;;;;;;;;;;;;;;;;;;
2022/06/19 08:21:39;;;;;;;;;;;;;;;31.84;24.73;101221.09;5011680;28;20031;-87
2022/06/19 08:24:08;;;;;;;;;;;;;;;32.32;24.46;101221.25;5006530;28;19966;-88
2022/06/19 08:26:49;;;;;;;;;;;;;;;;;;;;;
2022/06/19 08:29:26;;;;;;;;;;;;;;;;;;;;;
2022/06/19 08:31:59;;;;;;;;;;;;;;;33.30;23.25;101215.38;4994830;28;19919;-90
2022/06/19 08:34:36;;;;;;;;;;;;;;;;;;;;;
2022/06/19 08:37:11;;;;;;;;;;;;;;;33.25;23.67;101212.63;5013523;28;19976;-87
2022/06/19 08:39:43;;;;;;;;;;;;;;;33.69;22.83;101219.81;5005065;28;19914;-85
2022/06/19 08:42:31;;;;;;;;;;;;;;;33.10;23.87;101213.69;4986681;28;19914;-84
2022/06/19 08:45:16;;;;;;;;;;;;;;;33.35;23.43;101213.31;5020848;28;19920;-85
2022/06/19 08:48:06;;;;;;;;;;;;;;;33.26;23.41;101206.78;5021889;28;19989;-84
2022/06/19 08:50:46;;;;;;;;;;;;;;;33.61;22.76;101207.41;5008473;28;20353;-87
2022/06/19 08:53:41;;;;;;;;;;;;;;;;;;;;;
2022/06/19 08:56:23;;;;;;;;;;;;;;;33.19;23.02;101206.31;5009075;28;19913;-88
2022/06/19 08:59:02;;;;;;;;;;;;;;;33.46;22.04;101199.22;4981553;28;19913;-87
2022/06/19 09:01:48;;;;;;;;;;;;;;;34.30;21.91;101202.03;4997636;28;19909;-88
2022/06/19 09:07:02;;;;;;;;;;;;;;;32.78;24.06;101206.84;5012214;28;19920;-86
2022/06/19 09:09:50;;;;;;;;;;;;;;;32.31;25.62;101202.88;5016000;28;19909;-86
2022/06/19 09:12:20;;;;;;;;;;;;;;;32.31;25.14;101202.88;5001842;28;19909;-87
2022/06/19 09:14:47;;;;;;;;;;;;;;;31.79;25.34;101208.06;4994839;28;20000;-86
2022/06/19 09:17:22;;;;;;;;;;;;;;;32.55;24.28;101202.94;5014734;28;19916;-85
2022/06/19 09:20:16;;;;;;;;;;;;;;;33.42;23.75;101211.00;4993633;28;20439;-86
2022/06/19 09:23:02;;;;;;;;;;;;;;;33.89;22.51;101201.94;4997142;28;20397;-84
2022/06/19 09:25:34;;;;;;;;;;;;;;;33.73;22.58;101199.38;5021482;28;19916;-84
2022/06/19 09:28:25;;;;;;;;;;;;;;;33.15;23.79;101202.47;5014429;28;19913;-83
2022/06/19 09:31:09;;;;;;;;;;;;;;;33.10;24.12;101205.34;5006430;28;19913;-83
2022/06/19 09:33:53;;;;;;;;;;;;;;;33.59;23.33;101198.50;5002959;28;19913;-86
2022/06/19 09:36:27;;;;;;;;;;;;;;;34.54;24.60;101204.66;5005430;28;19967;-85
2022/06/19 09:39:22;;;;;;;;;;;;;;;34.21;25.74;101201.09;5012866;28;20353;-84
2022/06/19 09:41:52;;;;;;;;;;;;;;;33.28;26.42;101204.53;5011489;28;20378;-83
2022/06/19 09:44:23;;;;;;;;;;;;;;;32.38;27.42;101206.13;4998372;28;19967;-84
2022/06/19 09:46:53;;;;;;;;;;;;;;;31.66;29.36;101209.56;4981205;28;20242;-83
2022/06/19 09:49:24;;;;;;;;;;;;;;;31.61;31.80;101217.94;5016478;28;20000;-86
2022/06/19 09:51:50;;;;;;;;;;;;;;;32.27;32.11;101212.97;4988778;28;20409;-88
2022/06/19 09:54:22;;;;;;;;;;;;;;;31.80;33.44;101222.81;5021384;28;19936;-86
2022/06/19 09:56:53;;;;;;;;;;;;;;;32.23;32.32;101218.25;5006998;28;19917;-88
2022/06/19 09:59:40;;;;;;;;;;;;;;;32.99;30.00;101218.53;5015718;28;19932;-88
2022/06/19 10:02:07;;;;;;;;;;;;;;;33.37;29.70;101222.22;5020071;28;19968;-85
2022/06/19 10:04:57;;;;;;;;;;;;;;;33.66;28.50;101218.47;4999912;28;19932;-82
2022/06/19 10:07:25;;;;;;;;;;;;;;;31.15;32.61;101228.47;5017246;28;19924;-83
2022/06/19 10:09:55;;;;;;;;;;;;;;;30.00;34.71;101230.94;5014504;28;20350;-84
2022/06/19 10:12:25;;;;;;;;;;;;;;;29.34;36.52;101226.13;4995903;28;19917;-87
2022/06/19 10:15:03;;;;;;;;;;;;;;;;;;;;;
2022/06/19 10:17:53;;;;;;;;;;;;;;;32.88;31.44;101217.84;4992772;28;19981;-87
2022/06/19 10:20:29;;;;;;;;;;;;;;;32.57;31.39;101222.97;5010321;28;19914;-85
2022/06/19 10:22:58;;;;;;;;;;;;;;;33.42;29.72;101218.53;4980873;28;20292;-88
2022/06/19 10:25:43;;;;;;;;;;;;;;;34.16;28.77;101212.34;5020442;28;19936;-88
2022/06/19 10:28:28;;;;;;;;;;;;;;;34.50;27.04;101211.97;5001993;28;19980;-80
2022/06/19 10:30:59;;;;;;;;;;;;;;;32.81;30.21;101217.38;5001147;28;19914;-82
2022/06/19 10:33:24;;;;;;;;;;;;;;;33.33;29.07;101218.38;5003513;28;19917;-81
2022/06/19 10:35:51;;;;;;;;;;;;;;;32.86;29.21;101219.28;5005211;28;19910;-81
2022/06/19 10:38:29;;;;;;;;;;;;;;;32.50;29.96;101217.75;5001463;28;19917;-81
2022/06/19 10:44:12;;;;;;;;;;;;;;;32.22;31.28;101205.50;4987096;28;20072;-81
2022/06/19 10:46:38;;;;;;;;;;;;;;;32.72;30.24;101213.59;4981023;28;19913;-85
2022/06/19 10:49:14;;;;;;;;;;;;;;;32.65;30.35;101213.94;5007234;28;19929;-83
2022/06/19 10:51:51;;;;;;;;;;;;;;;32.18;31.02;101208.00;4976398;28;20397;-84
2022/06/19 10:54:27;;;;;;;;;;;;;;;31.86;32.00;101213.28;4999396;28;19945;-85
2022/06/19 10:56:59;;;;;;;;;;;;;;;32.39;31.06;101205.84;4986116;28;19914;-82
2022/06/19 10:59:27;;;;;;;;;;;;;;;30.69;33.63;101212.78;4988967;28;19918;-82
2022/06/19 11:04:41;;;;;;;;;;;;;;;30.88;33.88;101215.81;4993516;28;19917;-84
2022/06/19 11:07:25;;;;;;;;;;;;;;;30.92;33.51;101209.41;4965354;28;19917;-84
2022/06/19 11:09:54;;;;;;;;;;;;;;;30.34;34.97;101206.22;4994268;28;19921;-83
2022/06/19 11:12:30;;;;;;;;;;;;;;;29.51;36.57;101214.78;5002250;28;19919;-84
2022/06/19 11:15:02;;;;;;;;;;;;;;;29.44;36.86;101212.28;4972519;28;19913;-86
2022/06/19 11:18:03;;;;;;;;;;;;;;;29.33;36.86;101213.38;5000704;28;20392;-84
2022/06/19 11:20:31;;;;;;;;;;;;;;;29.90;36.53;101212.38;5008956;28;20048;-83
2022/06/19 11:23:00;;;;;;;;;;;;;;;29.63;37.32;101226.44;4977886;28;20000;-84
2022/06/19 11:25:31;;;;;;;;;;;;;;;29.69;37.51;101219.84;4996498;28;19918;-83
2022/06/19 11:28:03;;;;;;;;;;;;;;;30.24;36.73;101209.00;5023220;28;20433;-82
2022/06/19 11:30:37;;;;;;;;;;;;;;;30.00;36.32;101212.34;5009629;28;19913;-83
2022/06/19 11:33:05;;;;;;;;;;;;;;;29.42;38.11;101214.50;5013646;28;20392;-84
2022/06/19 11:35:56;;;;;;;;;;;;;;;29.60;37.87;101208.44;4995813;28;19906;-85
2022/06/19 11:38:32;;;;;;;;;;;;;;;29.64;37.61;101211.47;5017448;28;19925;-85
2022/06/19 11:41:01;;;;;;;;;;;;;;;29.88;37.10;101204.31;5007173;28;19910;-84
2022/06/19 11:43:34;;;;;;;;;;;;;;;29.91;37.77;101196.56;5006730;28;19914;-85
2022/06/19 11:46:31;;;;;;;;;;;;;;;29.98;37.61;101197.94;4982213;28;19910;-84
2022/06/19 11:49:14;;;;;;;;;;;;;;;29.66;37.93;101204.56;5013580;28;19913;-84
2022/06/19 11:51:44;;;;;;;;;;;;;;;29.66;38.67;101207.34;4996750;28;19910;-85
2022/06/19 11:54:19;;;;;;;;;;;;;;;29.23;38.34;101198.38;4996938;28;19914;-83
2022/06/19 11:56:49;;;;;;;;;;;;;;;29.16;38.80;101197.81;4994957;28;19974;-85
2022/06/19 11:59:39;;;;;;;;;;;;;;;28.14;39.33;101197.25;4987836;28;19944;-82
2022/06/19 12:02:26;;;;;;;;;;;;;;;27.72;40.68;101200.75;4997253;28;19935;-85
2022/06/19 12:04:55;;;;;;;;;;;;;;;28.39;40.26;101200.19;5010940;28;20100;-87
2022/06/19 12:07:23;;;;;;;;;;;;;;;28.01;41.36;101192.19;5012627;28;19925;-85
2022/06/19 12:09:57;;;;;;;;;;;;;;;28.11;41.45;101193.06;5000235;28;19916;-84
2022/06/19 12:12:26;;;;;;;;;;;;;;;27.48;43.41;101201.06;5011891;28;19976;-85
2022/06/19 12:14:53;;;;;;;;;;;;;;;27.65;43.02;101189.94;5006943;28;19910;-84
2022/06/19 12:17:21;;;;;;;;;;;;;;;27.94;42.04;101187.72;5000315;28;19971;-85
2022/06/19 12:19:51;;;;;;;;;;;;;;;27.44;42.62;101194.44;5000124;28;19920;-90
2022/06/19 12:22:20;;;;;;;;;;;;;;;27.56;42.87;101185.97;4983221;28;19925;-86
2022/06/19 12:24:51;;;;;;;;;;;;;;;27.44;42.91;101191.66;4998540;28;19921;-83
2022/06/19 12:27:21;;;;;;;;;;;;;;;27.47;42.46;101191.13;5023546;28;19925;-87
2022/06/19 12:30:11;;;;;;;;;;;;;;;27.12;43.11;101192.38;5004381;28;19975;-84
2022/06/19 12:32:53;;;;;;;;;;;;;;;27.32;42.11;101188.22;4993649;28;20229;-84
2022/06/19 12:35:54;;;;;;;;;;;;;;;27.15;43.31;101191.88;4989172;28;20000;-88
2022/06/19 12:38:32;;;;;;;;;;;;;;;27.43;42.49;101192.75;4944002;29;19923;-86
2022/06/19 12:41:27;;;;;;;;;;;;;;;26.96;44.13;101187.78;4986099;28;19968;-87
2022/06/19 12:43:58;;;;;;;;;;;;;;;26.94;42.87;101184.44;4985014;28;19920;-85
2022/06/19 12:46:34;;;;;;;;;;;;;;;27.13;43.25;101185.75;4979384;28;19910;-86
2022/06/19 12:49:16;;;;;;;;;;;;;;;27.52;43.01;101173.78;4969204;28;20859;-84
2022/06/19 12:51:53;;;;;;;;;;;;;;;27.45;42.85;101179.50;4975864;28;19910;-85
2022/06/19 12:54:27;;;;;;;;;;;;;;;27.27;43.00;101172.41;4958081;28;19944;-83
2022/06/19 12:57:05;;;;;;;;;;;;;;;27.28;43.02;101181.56;4975119;28;20623;-84
2022/06/19 13:00:11;;;;;;;;;;;;;;;27.11;42.63;101179.69;4990449;28;19921;-83
2022/06/19 13:02:44;;;;;;;;;;;;;;;26.90;43.78;101181.38;4975417;28;19914;-81
2022/06/19 13:05:34;;;;;;;;;;;;;;;26.50;44.70;101178.88;4966795;28;20393;-85
2022/06/19 13:08:18;;;;;;;;;;;;;;;26.25;45.26;101174.69;4969677;28;19945;-82
2022/06/19 13:11:13;;;;;;;;;;;;;;;26.28;45.51;101168.66;4971306;28;19914;-87
2022/06/19 13:13:42;;;;;;;;;;;;;;;26.37;44.12;101173.75;4975526;28;19920;-86
2022/06/19 13:16:14;;;;;;;;;;;;;;;25.93;45.26;101162.63;4979384;28;20373;-84
2022/06/19 13:19:08;;;;;;;;;;;;;;;;;;;;;
2022/06/19 13:21:45;;;;;;;;;;;;;;;25.89;46.63;101156.75;4991040;28;20385;-86
2022/06/19 13:24:18;;;;;;;;;;;;;;;25.61;46.87;101163.16;4983791;28;19917;-83
2022/06/19 13:27:14;;;;;;;;;;;;;;;25.60;47.46;101156.00;4980592;28;19996;-85
2022/06/19 13:29:58;;;;;;;;;;;;;;;25.36;48.21;101166.31;4919967;28;19915;-84
2022/06/19 13:32:37;;;;;;;;;;;;;;;25.36;47.77;101160.81;4977840;28;19971;-83
2022/06/19 13:35:22;;;;;;;;;;;;;;;24.78;49.23;101155.25;4994750;28;19929;-84
2022/06/19 13:38:09;;;;;;;;;;;;;;;25.18;48.58;101156.34;4994978;28;19921;-84
2022/06/19 13:40:50;;;;;;;;;;;;;;;25.12;49.20;101149.03;4986465;28;19918;-86
2022/06/19 13:43:37;;;;;;;;;;;;;;;24.93;49.75;101149.22;4992819;28;20008;-85
2022/06/19 13:46:23;;;;;;;;;;;;;;;24.75;50.38;101146.66;4991436;28;19921;-87
2022/06/19 13:48:57;;;;;;;;;;;;;;;24.26;51.23;101149.69;4994654;28;19972;-87